createdAt,value
2023-01-05T00:01:16.409Z,100357.13
2023-01-05T00:04:17.879Z,100354.16
2023-01-05T00:07:19.502Z,100374.00
2023-01-05T00:10:21.048Z,100362.47
2023-01-05T00:13:23.854Z,100363.31
2023-01-05T00:16:25.523Z,100361.47
2023-01-05T00:19:27.096Z,100346.72
2023-01-05T00:22:28.980Z,100364.56
2023-01-05T00:25:31.562Z,100363.16
2023-01-05T00:28:34.494Z,100358.13
2023-01-05T00:31:36.066Z,100367.66
2023-01-05T00:34:37.543Z,100359.06
2023-01-05T00:37:39.612Z,100353.78
2023-01-05T00:40:41.057Z,100361.50
2023-01-05T00:43:43.903Z,100362.59
2023-01-05T00:46:45.370Z,100365.41
2023-01-05T00:49:46.878Z,100367.22
2023-01-05T00:52:48.351Z,100354.28
2023-01-05T00:55:56.375Z,100349.38
2023-01-05T00:58:59.185Z,100352.47
2023-01-05T01:02:00.853Z,100353.88
2023-01-05T01:05:02.570Z,100345.19
2023-01-05T01:08:05.284Z,100356.00
2023-01-05T01:11:07.951Z,100348.28
2023-01-05T01:14:12.644Z,100363.31
2023-01-05T01:17:14.118Z,100366.50
2023-01-05T01:20:15.721Z,100359.34
2023-01-05T01:23:17.177Z,100355.00
2023-01-05T01:26:18.973Z,100360.34
2023-01-05T01:29:21.950Z,100361.72
2023-01-05T01:32:23.478Z,100347.69
2023-01-05T01:35:24.946Z,100352.19
2023-01-05T01:38:26.565Z,100349.38
2023-01-05T01:41:28.896Z,100353.56
2023-01-05T01:44:53.413Z,100331.94
2023-01-05T01:47:58.953Z,100332.78
2023-01-05T01:51:08.210Z,100332.31
2023-01-05T01:54:12.197Z,100331.88
2023-01-05T01:57:15.136Z,100326.25
2023-01-05T02:00:18.950Z,100315.44
2023-01-05T02:03:20.431Z,100324.34
2023-01-05T02:06:23.115Z,100336.53
2023-01-05T02:09:24.489Z,100330.25
2023-01-05T02:12:32.581Z,100324.91
2023-01-05T02:15:43.590Z,100333.44
2023-01-05T02:19:07.408Z,100333.38
2023-01-05T02:22:38.430Z,100309.16
2023-01-05T02:26:19.278Z,100305.50
2023-01-05T02:30:08.900Z,100307.06
2023-01-05T02:33:16.585Z,100318.84
2023-01-05T02:36:28.526Z,100335.03
2023-01-05T02:39:37.767Z,100349.00
2023-01-05T02:42:41.256Z,100363.31
2023-01-05T02:45:42.868Z,100378.75
2023-01-05T02:48:47.981Z,100394.38
2023-01-05T02:51:51.407Z,100406.84
2023-01-05T02:54:55.519Z,100409.06
2023-01-05T02:58:01.347Z,100426.22
2023-01-05T03:01:07.774Z,100424.94
2023-01-05T03:04:14.337Z,100430.28
2023-01-05T03:07:22.358Z,100439.72
2023-01-05T03:10:24.246Z,100445.75
2023-01-05T03:13:28.484Z,100441.56
2023-01-05T03:16:35.100Z,100437.47
2023-01-05T03:19:40.206Z,100440.28
2023-01-05T03:22:45.167Z,100446.34
2023-01-05T03:25:48.318Z,100446.34
2023-01-05T03:28:53.677Z,100446.88
2023-01-05T03:32:00.046Z,100440.44
2023-01-05T03:35:05.873Z,100447.75
2023-01-05T03:38:17.672Z,100449.44
2023-01-05T03:41:22.695Z,100450.97
2023-01-05T03:44:24.509Z,100447.19
2023-01-05T03:47:27.371Z,100440.13
2023-01-05T03:50:30.319Z,100442.69
2023-01-05T03:53:32.907Z,100436.66
2023-01-05T03:56:34.646Z,100438.47
2023-01-05T03:59:36.232Z,100429.22
2023-01-05T04:02:39.164Z,100427.22
2023-01-05T04:05:42.887Z,100432.28
2023-01-05T04:08:45.597Z,100436.09
2023-01-05T04:11:47.260Z,100426.81
2023-01-05T04:14:48.821Z,100427.09
2023-01-05T04:17:50.367Z,100416.84
2023-01-05T04:20:53.253Z,100426.13
2023-01-05T04:23:55.988Z,100421.31
2023-01-05T04:26:58.528Z,100439.31
2023-01-05T04:30:02.086Z,100430.47
2023-01-05T04:33:04.323Z,100437.09
2023-01-05T04:36:07.983Z,100446.34
2023-01-05T04:39:10.394Z,100442.41
2023-01-05T04:42:13.066Z,100454.56
2023-01-05T04:45:15.773Z,100481.16
2023-01-05T04:48:17.897Z,100494.59
2023-01-05T04:51:21.037Z,100513.72
2023-01-05T04:54:22.797Z,100533.34
2023-01-05T04:57:24.518Z,100550.59
2023-01-05T05:00:27.167Z,100549.03
2023-01-05T05:03:33.007Z,100548.06
2023-01-05T05:06:36.797Z,100554.00
2023-01-05T05:09:38.295Z,100545.28
2023-01-05T05:12:39.849Z,100556.53
2023-01-05T05:15:44.007Z,100553.59
2023-01-05T05:18:46.813Z,100549.03
2023-01-05T05:21:54.239Z,100545.13
2023-01-05T05:24:55.987Z,100537.06
2023-01-05T05:27:57.615Z,100559.22
2023-01-05T05:30:59.155Z,100536.69
2023-01-05T05:34:00.736Z,100548.81
2023-01-05T05:37:14.888Z,100542.59
2023-01-05T05:40:16.631Z,100551.75
2023-01-05T05:43:18.122Z,100553.03
2023-01-05T05:46:19.609Z,100551.63
2023-01-05T05:49:21.166Z,100551.47
2023-01-05T05:52:24.238Z,100561.84
2023-01-05T05:55:25.700Z,100558.75
2023-01-05T05:58:27.171Z,100553.16
2023-01-05T06:01:28.978Z,100560.59
2023-01-05T06:04:30.650Z,100557.50
2023-01-05T06:07:33.445Z,100562.56
2023-01-05T06:10:35.035Z,100570.19
2023-01-05T06:13:36.683Z,100569.22
2023-01-05T06:16:38.203Z,100574.53
2023-01-05T06:19:39.815Z,100584.47
2023-01-05T06:22:42.710Z,100566.63
2023-01-05T06:25:44.302Z,100578.09
2023-01-05T06:28:45.840Z,100577.72
2023-01-05T06:31:47.333Z,100602.03
2023-01-05T06:34:48.838Z,100599.19
2023-01-05T06:37:51.669Z,100597.25
2023-01-05T06:40:53.204Z,100610.59
2023-01-05T06:43:54.706Z,100606.78
2023-01-05T06:46:56.245Z,100616.31
2023-01-05T06:49:57.753Z,100623.00
2023-01-05T06:53:00.640Z,100640.31
2023-01-05T06:56:02.070Z,100636.72
2023-01-05T06:59:03.829Z,100647.78
2023-01-05T07:02:05.356Z,100666.56
2023-01-05T07:05:11.211Z,100680.03
2023-01-05T07:08:14.562Z,100696.03
2023-01-05T07:11:16.141Z,100713.75
2023-01-05T07:14:17.754Z,100709.13
2023-01-05T07:17:22.564Z,100725.25
2023-01-05T07:20:24.007Z,100721.28
2023-01-05T07:23:26.992Z,100734.63
2023-01-05T07:26:28.562Z,100737.16
2023-01-05T07:29:30.093Z,100739.84
2023-01-05T07:32:36.949Z,100748.56
2023-01-05T07:35:43.599Z,100758.63
2023-01-05T07:38:47.697Z,100755.44
2023-01-05T07:41:51.707Z,100764.44
2023-01-05T07:44:53.199Z,100771.25
2023-01-05T07:47:54.641Z,100758.63
2023-01-05T07:50:59.679Z,100772.06
2023-01-05T07:54:02.510Z,100769.03
2023-01-05T07:57:06.081Z,100766.59
2023-01-05T08:00:10.654Z,100772.19
2023-01-05T08:03:18.841Z,100774.84
2023-01-05T08:06:21.220Z,100773.13
2023-01-05T08:09:24.048Z,100783.56
2023-01-05T08:12:31.261Z,100775.53
2023-01-05T08:15:34.294Z,100784.53
2023-01-05T08:18:35.859Z,100776.41
2023-01-05T08:21:46.732Z,100791.88
2023-01-05T08:24:49.548Z,100782.91
2023-01-05T08:27:54.091Z,100787.53
2023-01-05T08:31:04.536Z,100794.56
2023-01-05T08:34:06.030Z,100783.63
2023-01-05T08:37:14.118Z,100789.09
2023-01-05T08:40:17.043Z,100807.03
2023-01-05T08:43:22.247Z,100803.41
2023-01-05T08:46:25.166Z,100813.22
2023-01-05T08:49:26.600Z,100824.91
2023-01-05T08:52:28.111Z,100826.22
2023-01-05T08:55:31.119Z,100829.41
2023-01-05T08:58:32.634Z,100841.97
2023-01-05T09:01:34.133Z,100851.97
2023-01-05T09:04:37.063Z,100870.88
2023-01-05T09:07:38.639Z,100878.03
2023-01-05T09:10:50.873Z,100893.00
2023-01-05T09:13:53.744Z,100888.16
2023-01-05T09:17:11.442Z,100898.91
2023-01-05T09:20:13.212Z,100899.50
2023-01-05T09:23:14.640Z,100908.34
2023-01-05T09:26:17.877Z,100905.91
2023-01-05T09:29:25.538Z,100906.16
2023-01-05T09:32:27.013Z,100905.63
2023-01-05T09:35:35.313Z,100920.31
2023-01-05T09:38:44.912Z,100903.97
2023-01-05T09:41:51.647Z,100940.81
2023-01-05T09:45:00.933Z,100955.25
2023-01-05T09:48:14.019Z,100954.28
2023-01-05T09:51:15.569Z,100963.13
2023-01-05T09:54:19.137Z,100965.81
2023-01-05T09:57:22.629Z,100973.56
2023-01-05T10:00:25.294Z,100982.19
2023-01-05T10:04:02.401Z,100988.25
2023-01-05T10:06:55.455Z,101004.13
2023-01-05T10:10:05.777Z,101018.78
2023-01-05T10:13:24.644Z,101018.78
2023-01-05T10:16:29.668Z,101032.88
2023-01-05T10:19:31.615Z,101030.31
2023-01-05T10:22:40.132Z,101035.16
2023-01-05T10:25:46.178Z,101033.34
2023-01-05T10:28:53.013Z,101040.72
2023-01-05T10:31:56.520Z,101045.22
2023-01-05T10:35:12.138Z,101049.81
2023-01-05T10:38:33.448Z,101062.06
2023-01-05T10:41:50.213Z,101061.13
2023-01-05T10:44:55.313Z,101060.25
2023-01-05T10:48:00.461Z,101066.19
2023-01-05T10:51:02.690Z,101072.59
2023-01-05T10:54:05.420Z,101076.88
2023-01-05T10:57:39.850Z,101070.19
2023-01-05T11:00:45.811Z,101076.03
2023-01-05T11:07:15.458Z,101071.78
2023-01-05T11:10:22.813Z,101067.78
2023-01-05T11:13:37.090Z,101067.66
2023-01-05T11:16:46.949Z,101078.72
2023-01-05T11:19:57.287Z,101069.84
2023-01-05T11:22:58.738Z,101077.28
2023-01-05T11:26:20.191Z,101069.53
2023-01-05T11:29:21.692Z,101068.41
2023-01-05T11:32:24.680Z,101061.53
2023-01-05T11:38:51.713Z,101048.66
2023-01-05T11:41:53.653Z,101054.72
2023-01-05T11:44:58.358Z,101052.53
2023-01-05T11:48:02.271Z,101047.78
2023-01-05T11:51:10.884Z,101063.69
2023-01-05T11:54:34.579Z,101073.50
2023-01-05T11:57:39.071Z,101068.28
2023-01-05T12:00:51.191Z,101074.00
2023-01-05T12:04:00.448Z,101076.91
2023-01-05T12:07:12.480Z,101069.75
2023-01-05T12:10:35.348Z,101066.00
2023-01-05T12:13:59.068Z,101079.94
2023-01-05T12:17:04.206Z,101055.06
2023-01-05T12:20:25.805Z,101054.09
2023-01-05T12:26:57.384Z,101066.06
2023-01-05T12:34:07.256Z,101086.31
2023-01-05T12:37:30.805Z,101098.34
2023-01-05T12:40:45.347Z,101093.59
2023-01-05T12:43:54.923Z,101107.06
2023-01-05T12:47:13.920Z,101106.88
2023-01-05T12:50:27.041Z,101102.94
2023-01-05T12:53:44.176Z,101106.47
2023-01-05T12:56:48.264Z,101104.41
2023-01-05T13:00:03.494Z,101099.06
2023-01-05T13:03:15.585Z,101094.84
2023-01-05T13:06:25.988Z,101094.84
2023-01-05T13:09:31.205Z,101112.69
2023-01-05T13:12:34.030Z,101099.63
2023-01-05T13:15:40.637Z,101094.41
2023-01-05T13:18:49.485Z,101096.47
2023-01-05T13:21:52.657Z,101089.41
2023-01-05T13:25:06.348Z,101089.66
2023-01-05T13:28:18.231Z,101090.88
2023-01-05T13:31:39.022Z,101083.59
2023-01-05T13:34:51.786Z,101082.25
2023-01-05T13:38:04.207Z,101080.81
2023-01-05T13:41:24.390Z,101079.09
2023-01-05T13:44:58.837Z,101088.81
2023-01-05T13:48:33.737Z,101083.59
2023-01-05T13:51:54.591Z,101080.56
2023-01-05T13:55:14.435Z,101090.88
2023-01-05T13:58:33.959Z,101097.91
2023-01-05T14:01:37.688Z,101101.41
2023-01-05T14:04:45.550Z,101103.00
2023-01-05T14:07:51.069Z,101110.16
2023-01-05T14:11:12.862Z,101119.47
2023-01-05T14:14:27.273Z,101098.38
2023-01-05T14:17:55.826Z,101103.44
2023-01-05T14:21:04.865Z,101115.31
2023-01-05T14:24:26.620Z,101110.34
2023-01-05T14:27:34.986Z,101123.06
2023-01-05T14:30:37.736Z,101128.13
2023-01-05T14:33:46.624Z,101140.41
2023-01-05T14:37:04.364Z,101155.28
2023-01-05T14:40:30.421Z,101166.19
2023-01-05T14:43:33.636Z,101175.16
2023-01-05T14:46:52.664Z,101183.22
2023-01-05T14:49:58.581Z,101194.75
2023-01-05T14:53:03.297Z,101205.66
2023-01-05T14:56:16.855Z,101213.75
2023-01-05T14:59:24.081Z,101214.19
2023-01-05T15:02:43.927Z,101227.44
2023-01-05T15:06:06.724Z,101246.81
2023-01-05T15:09:24.806Z,101241.47
2023-01-05T15:12:45.158Z,101258.84
2023-01-05T15:15:51.835Z,101254.34
2023-01-05T15:19:13.803Z,101262.34
2023-01-05T15:22:38.169Z,101249.88
2023-01-05T15:26:03.348Z,101258.97
2023-01-05T15:29:35.178Z,101257.25
2023-01-05T15:32:43.528Z,101254.56
2023-01-05T15:35:54.196Z,101251.50
2023-01-05T15:38:55.927Z,101251.84
2023-01-05T15:42:00.037Z,101261.13
2023-01-05T15:45:01.735Z,101262.47
2023-01-05T15:48:08.482Z,101251.91
2023-01-05T15:51:22.535Z,101236.78
2023-01-05T15:54:27.411Z,101233.59
2023-01-05T15:57:31.825Z,101236.25
2023-01-05T16:00:39.448Z,101239.16
2023-01-05T16:03:48.101Z,101235.50
2023-01-05T16:06:56.481Z,101232.66
2023-01-05T16:09:57.943Z,101232.47
2023-01-05T16:13:04.750Z,101235.84
2023-01-05T16:16:12.914Z,101238.03
2023-01-05T16:19:22.844Z,101244.31
2023-01-05T16:22:30.438Z,101251.13
2023-01-05T16:25:34.485Z,101253.69
2023-01-05T16:28:35.966Z,101255.50
2023-01-05T16:31:37.428Z,101251.25
2023-01-05T16:34:38.851Z,101252.41
2023-01-05T16:38:02.128Z,101251.59
2023-01-05T16:41:08.942Z,101245.97
2023-01-05T16:44:13.314Z,101255.97
2023-01-05T16:47:29.998Z,101251.09
2023-01-05T16:50:52.827Z,101263.78
2023-01-05T16:53:57.815Z,101265.50
2023-01-05T16:57:01.154Z,101269.34
2023-01-05T17:00:04.197Z,101261.44
2023-01-05T17:03:32.661Z,101276.34
2023-01-05T17:06:34.444Z,101277.31
2023-01-05T17:09:37.273Z,101281.50
2023-01-05T17:12:38.831Z,101285.09
2023-01-05T17:15:44.175Z,101295.53
2023-01-05T17:18:45.984Z,101298.94
2023-01-05T17:21:48.631Z,101294.81
2023-01-05T17:24:51.971Z,101309.06
2023-01-05T17:27:54.296Z,101305.47
2023-01-05T17:31:02.590Z,101300.44
2023-01-05T17:34:15.401Z,101308.88
2023-01-05T17:37:17.099Z,101306.09
2023-01-05T17:40:24.812Z,101305.28
2023-01-05T17:43:28.304Z,101305.47
2023-01-05T17:46:31.235Z,101305.16
2023-01-05T17:49:35.753Z,101301.09
2023-01-05T17:52:37.264Z,101314.22
2023-01-05T17:55:41.047Z,101309.97
2023-01-05T17:58:42.754Z,101313.28
2023-01-05T18:01:44.260Z,101306.97
2023-01-05T18:04:46.019Z,101312.41
2023-01-05T18:07:48.309Z,101307.84
2023-01-05T18:10:57.399Z,101307.94
2023-01-05T18:13:58.875Z,101310.38
2023-01-05T18:17:01.873Z,101304.19
2023-01-05T18:20:04.516Z,101306.97
2023-01-05T18:26:14.260Z,101304.75
2023-01-05T18:29:15.800Z,101301.75
2023-01-05T18:32:17.564Z,101305.28
2023-01-05T18:35:19.234Z,101310.06
2023-01-05T18:38:20.767Z,101310.06
2023-01-05T18:41:26.927Z,101308.59
2023-01-05T18:44:28.459Z,101315.06
2023-01-05T18:47:30.172Z,101305.50
2023-01-05T18:50:31.678Z,101307.31
2023-01-05T18:53:33.526Z,101308.38
2023-01-05T18:56:36.236Z,101312.13
2023-01-05T18:59:37.776Z,101307.41
2023-01-05T19:02:39.864Z,101309.00
2023-01-05T19:05:43.044Z,101320.41
2023-01-05T19:08:52.014Z,101312.22
2023-01-05T19:11:56.626Z,101323.78
2023-01-05T19:14:58.073Z,101316.56
2023-01-05T19:18:06.664Z,101314.22
2023-01-05T19:21:09.080Z,101313.91
2023-01-05T19:24:14.155Z,101315.94
2023-01-05T19:27:16.988Z,101317.00
2023-01-05T19:30:18.436Z,101317.72
2023-01-05T19:33:20.182Z,101313.50
2023-01-05T19:36:23.294Z,101309.84
2023-01-05T19:39:25.816Z,101299.84
2023-01-05T19:42:28.736Z,101301.16
2023-01-05T19:45:30.324Z,101300.50
2023-01-05T19:48:33.623Z,101293.06
2023-01-05T19:51:35.258Z,101296.53
2023-01-05T19:54:36.761Z,101291.53
2023-01-05T19:57:39.695Z,101293.38
2023-01-05T20:00:41.243Z,101294.41
2023-01-05T20:03:43.659Z,101287.28
2023-01-05T20:06:45.760Z,101299.97
2023-01-05T20:09:48.869Z,101285.69
2023-01-05T20:12:52.306Z,101293.78
2023-01-05T20:15:56.004Z,101284.75
2023-01-05T20:18:57.641Z,101281.97
2023-01-05T20:22:00.516Z,101286.31
2023-01-05T20:25:02.109Z,101284.84
2023-01-05T20:28:05.012Z,101287.41
2023-01-05T20:31:20.411Z,101283.44
2023-01-05T20:34:26.370Z,101285.91
2023-01-05T20:37:32.318Z,101287.72
2023-01-05T20:40:33.872Z,101284.53
2023-01-05T20:43:36.710Z,101282.41
2023-01-05T20:46:47.922Z,101290.69
2023-01-05T20:49:49.396Z,101283.53
2023-01-05T20:52:50.931Z,101280.03
2023-01-05T20:55:52.419Z,101279.41
2023-01-05T20:58:55.433Z,101277.34
2023-01-05T21:02:12.342Z,101278.44
2023-01-05T21:05:22.456Z,101276.91
2023-01-05T21:08:24.485Z,101276.06
2023-01-05T21:11:26.022Z,101290.22
2023-01-05T21:14:28.923Z,101284.06
2023-01-05T21:17:30.435Z,101280.22
2023-01-05T21:20:31.918Z,101288.72
2023-01-05T21:23:36.435Z,101286.19
2023-01-05T21:26:37.873Z,101288.41
2023-01-05T21:29:40.756Z,101279.47
2023-01-05T21:32:42.239Z,101280.31
2023-01-05T21:35:43.772Z,101281.91
2023-01-05T21:39:01.387Z,101276.16
2023-01-05T21:42:05.078Z,101276.06
2023-01-05T21:45:09.920Z,101275.94
2023-01-05T21:48:12.608Z,101282.22
2023-01-05T21:51:14.251Z,101270.94
2023-01-05T21:54:19.573Z,101269.00
2023-01-05T21:57:21.168Z,101277.09
2023-01-05T22:00:24.260Z,101275.06
2023-01-05T22:03:28.946Z,101269.31
2023-01-05T22:06:31.326Z,101261.41
2023-01-05T22:09:32.863Z,101261.84
2023-01-05T22:12:34.535Z,101257.34
2023-01-05T22:15:37.469Z,101254.88
2023-01-05T22:18:39.584Z,101245.97
2023-01-05T22:21:41.099Z,101248.84
2023-01-05T22:24:42.595Z,101243.41
2023-01-05T22:27:44.048Z,101249.78
2023-01-05T22:30:46.895Z,101255.00
2023-01-05T22:33:50.971Z,101255.88
2023-01-05T22:36:53.010Z,101255.75
2023-01-05T22:39:54.456Z,101252.88
2023-01-05T22:42:55.904Z,101258.09
2023-01-05T22:46:02.628Z,101257.75
2023-01-05T22:49:04.317Z,101252.41
2023-01-05T22:52:07.434Z,101250.50
2023-01-05T22:55:09.192Z,101245.16
2023-01-05T22:58:10.947Z,101246.97
2023-01-05T23:01:16.132Z,101240.69
2023-01-05T23:04:21.567Z,101243.25
2023-01-05T23:07:23.015Z,101235.97
2023-01-05T23:10:24.509Z,101235.75
2023-01-05T23:13:26.022Z,101230.19
2023-01-05T23:16:28.881Z,101218.47
2023-01-05T23:19:30.561Z,101224.53
2023-01-05T23:22:32.099Z,101219.91
2023-01-05T23:25:33.776Z,101226.75
2023-01-05T23:28:35.353Z,101218.00
2023-01-05T23:31:38.172Z,101216.44
2023-01-05T23:34:40.864Z,101217.13
2023-01-05T23:37:42.432Z,101199.44
2023-01-05T23:40:45.119Z,101205.41
2023-01-05T23:43:46.939Z,101193.78
2023-01-05T23:46:49.639Z,101193.44
2023-01-05T23:49:51.135Z,101193.19
2023-01-05T23:52:52.634Z,101195.00
2023-01-05T23:56:04.493Z,101187.00
2023-01-05T23:59:07.721Z,101182.28
